Time;durP1;ratioP1;P1;durP2;ratioP2;P2;SDS_P1;SDS_P2;PMS_P1;PMS_P2;Temp;Humidity;BMP_temperature;BMP_pressure;BME280_temperature;BME280_humidity;BME280_pressure;Samples;Min_cycle;Max_cycle;Signal;HPM_P1;HPM_P2
2022/08/20 00:02:06;;;;;;;;;;;;;;;;;;5010121;28;46153;-82
2022/08/20 00:04:32;;;;;;;;;;;;;;;;;;4992552;28;44429;-82
2022/08/20 00:06:59;;;;;;;;;;;;;;;;;;5009198;28;47925;-82
2022/08/20 00:09:25;;;;;;;;;;;;;;;;;;5007222;28;45658;-82
2022/08/20 00:11:52;;;;;;;;;;;;;;;;;;4990996;28;43595;-82
2022/08/20 00:14:18;;;;;;;;;;;;;;;;;;4993232;28;47311;-82
2022/08/20 00:16:44;;;;;;;;;;;;;;;;;;5009056;28;42170;-82
2022/08/20 00:19:11;;;;;;;;;;;;;;;;;;4991298;28;46202;-81
2022/08/20 00:21:37;;;;;;;;;;;;;;;;;;4999828;28;45615;-82
2022/08/20 00:24:06;;;;;;;;;;;;;;;;;;5008295;28;45177;-82
2022/08/20 00:26:32;;;;;;;;;;;;;;;;;;5007525;28;46635;-82
2022/08/20 00:28:58;;;;;;;;;;;;;;;;;;5007293;28;45401;-82
2022/08/20 00:31:24;;;;;;;;;;;;;;;;;;5009031;28;42616;-83
2022/08/20 00:33:51;;;;;;;;;;;;;;;;;;5009961;28;46350;-82
2022/08/20 00:36:17;;;;;;;;;;;;;;;;;;4995737;28;45441;-82
2022/08/20 00:38:47;;;;;;;;;;;;;;;;;;4990839;28;47877;-82
2022/08/20 00:41:13;;;;;;;;;;;;;;;;;;5007766;28;46932;-82
2022/08/20 00:43:39;;;;;;;;;;;;;;;;;;5008759;28;43728;-82
2022/08/20 00:46:05;;;;;;;;;;;;;;;;;;5008029;28;46442;-82
2022/08/20 00:48:34;;;;;;;;;;;;;;;;;;5010003;28;47240;-81
2022/08/20 00:51:00;;;;;;;;;;;;;;;;;;5011192;28;43713;-81
2022/08/20 00:53:27;;;;;;;;;;;;;;;;;;5000829;28;45868;-82
2022/08/20 00:55:53;;;;;;;;;;;;;;;;;;5008155;28;45602;-82
2022/08/20 00:58:19;;;;;;;;;;;;;;;;;;5011810;28;45837;-82
2022/08/20 01:00:46;;;;;;;;;;;;;;;;;;4993744;28;47067;-81
2022/08/20 01:03:16;;;;;;;;;;;;;;;;;;5012016;28;42591;-82
2022/08/20 01:05:43;;;;;;;;;;;;;;;;;;5011519;28;46366;-82
2022/08/20 01:08:09;;;;;;;;;;;;;;;;;;4994296;28;47941;-82
2022/08/20 01:10:36;;;;;;;;;;;;;;;;;;4986366;28;42966;-82
2022/08/20 01:13:02;;;;;;;;;;;;;;;;;;4995306;28;48296;-82
2022/08/20 01:15:28;;;;;;;;;;;;;;;;;;4995092;28;45778;-81
2022/08/20 01:17:57;;;;;;;;;;;;;;;;;;5012376;28;43291;-81
2022/08/20 01:20:23;;;;;;;;;;;;;;;;;;5010526;28;47044;-81
2022/08/20 01:25:34;;;;;;;;;;;;;;;;;;5009515;28;47506;-82
2022/08/20 01:28:01;;;;;;;;;;;;;;;;;;5012199;28;46385;-82
2022/08/20 01:30:27;;;;;;;;;;;;;;;;;;5010130;28;44710;-82
2022/08/20 01:32:53;;;;;;;;;;;;;;;;;;5011964;28;47047;-82
2022/08/20 01:35:19;;;;;;;;;;;;;;;;;;4994537;28;46956;-82
2022/08/20 01:37:46;;;;;;;;;;;;;;;;;;5011956;28;44882;-82
2022/08/20 01:40:12;;;;;;;;;;;;;;;;;;5009926;28;44782;-82
2022/08/20 01:42:39;;;;;;;;;;;;;;;;;;4995508;28;44949;-82
2022/08/20 01:45:17;;;;;;;;;;;;;;;;;;4997039;28;47747;-82
2022/08/20 01:47:44;;;;;;;;;;;;;;;;;;4995019;28;44172;-82
2022/08/20 01:50:12;;;;;;;;;;;;;;;;;;4993942;28;43908;-82
2022/08/20 01:52:40;;;;;;;;;;;;;;;;;;5010919;28;46404;-82
2022/08/20 01:55:06;;;;;;;;;;;;;;;;;;5010282;28;47017;-82
2022/08/20 01:57:32;;;;;;;;;;;;;;;;;;4993861;28;43639;-82
2022/08/20 01:59:58;;;;;;;;;;;;;;;;;;5014819;28;47515;-82
2022/08/20 02:02:25;;;;;;;;;;;;;;;;;;5023124;28;46210;-82
2022/08/20 02:04:51;;;;;;;;;;;;;;;;;;4992464;28;47684;-82
2022/08/20 02:07:17;;;;;;;;;;;;;;;;;;4993899;28;46901;-82
2022/08/20 02:09:43;;;;;;;;;;;;;;;;;;5010469;28;43688;-82
2022/08/20 02:12:10;;;;;;;;;;;;;;;;;;4994016;28;47569;-82
2022/08/20 02:14:36;;;;;;;;;;;;;;;;;;5011063;28;47854;-82
2022/08/20 02:17:02;;;;;;;;;;;;;;;;;;4994109;28;44896;-82
2022/08/20 02:19:29;;;;;;;;;;;;;;;;;;4992549;28;47373;-82
2022/08/20 02:21:57;;;;;;;;;;;;;;;;;;5008363;28;45503;-82
2022/08/20 02:24:23;;;;;;;;;;;;;;;;;;4993747;28;43842;-82
2022/08/20 02:26:49;;;;;;;;;;;;;;;;;;4993798;28;47018;-82
2022/08/20 02:29:16;;;;;;;;;;;;;;;;;;4983894;28;44892;-82
2022/08/20 02:31:43;;;;;;;;;;;;;;;;;;4990733;28;47689;-82
2022/08/20 02:34:29;;;;;;;;;;;;;;;;;;4997780;28;19934;-82
2022/08/20 02:36:58;;;;;;;;;;;;;;;;;;4991905;28;45092;-82
2022/08/20 02:39:25;;;;;;;;;;;;;;;;;;5009416;28;47351;-82
2022/08/20 02:41:51;;;;;;;;;;;;;;;;;;5008726;28;47977;-82
2022/08/20 02:44:19;;;;;;;;;;;;;;;;;;5002462;28;44893;-82
2022/08/20 02:46:47;;;;;;;;;;;;;;;;;;5009605;28;46281;-82
2022/08/20 02:49:13;;;;;;;;;;;;;;;;;;5008688;28;43741;-82
2022/08/20 02:51:39;;;;;;;;;;;;;;;;;;5013304;28;46423;-82
2022/08/20 02:54:05;;;;;;;;;;;;;;;;;;4993832;28;47000;-82
2022/08/20 02:56:32;;;;;;;;;;;;;;;;;;5004518;28;42101;-82
2022/08/20 02:58:58;;;;;;;;;;;;;;;;;;5007910;28;43915;-82
2022/08/20 03:01:24;;;;;;;;;;;;;;;;;;4987923;28;48878;-81
2022/08/20 03:03:51;;;;;;;;;;;;;;;;;;5009435;28;44989;-82
2022/08/20 03:06:17;;;;;;;;;;;;;;;;;;5005253;28;48344;-82
2022/08/20 03:08:43;;;;;;;;;;;;;;;;;;5005166;28;47405;-82
2022/08/20 03:11:10;;;;;;;;;;;;;;;;;;4990720;28;46447;-82
2022/08/20 03:13:36;;;;;;;;;;;;;;;;;;5010204;28;46790;-82
2022/08/20 03:16:02;;;;;;;;;;;;;;;;;;4991094;28;44887;-81
2022/08/20 03:18:29;;;;;;;;;;;;;;;;;;5009230;28;47591;-81
2022/08/20 03:20:55;;;;;;;;;;;;;;;;;;5010411;28;46887;-81
2022/08/20 03:23:21;;;;;;;;;;;;;;;;;;5009617;28;43537;-81
2022/08/20 03:25:47;;;;;;;;;;;;;;;;;;5009955;28;45445;-81
2022/08/20 03:28:15;;;;;;;;;;;;;;;;;;4991480;28;46140;-81
2022/08/20 03:30:41;;;;;;;;;;;;;;;;;;5014586;28;47525;-82
2022/08/20 03:33:07;;;;;;;;;;;;;;;;;;5012163;28;45592;-82
2022/08/20 03:35:33;;;;;;;;;;;;;;;;;;4993052;28;43723;-81
2022/08/20 03:38:00;;;;;;;;;;;;;;;;;;5009111;28;46470;-81
2022/08/20 03:40:26;;;;;;;;;;;;;;;;;;5007814;28;46922;-81
2022/08/20 03:42:52;;;;;;;;;;;;;;;;;;5014565;28;43870;-81
2022/08/20 03:45:18;;;;;;;;;;;;;;;;;;4992320;28;47429;-81
2022/08/20 03:47:45;;;;;;;;;;;;;;;;;;5010080;28;46874;-81
2022/08/20 03:50:12;;;;;;;;;;;;;;;;;;5010251;28;44688;-81
2022/08/20 03:52:47;;;;;;;;;;;;;;;;;;5003322;28;47023;-82
2022/08/20 03:55:13;;;;;;;;;;;;;;;;;;4993309;28;44962;-82
2022/08/20 03:57:40;;;;;;;;;;;;;;;;;;5010224;28;46021;-81
2022/08/20 04:00:06;;;;;;;;;;;;;;;;;;5011798;28;45538;-81
2022/08/20 04:02:33;;;;;;;;;;;;;;;;;;5007833;28;42658;-81
2022/08/20 04:04:59;;;;;;;;;;;;;;;;;;5007175;28;46344;-82
2022/08/20 04:07:26;;;;;;;;;;;;;;;;;;5016049;28;48061;-81
2022/08/20 04:09:52;;;;;;;;;;;;;;;;;;5005395;28;43559;-81
2022/08/20 04:12:18;;;;;;;;;;;;;;;;;;5007417;28;46258;-81
2022/08/20 04:14:44;;;;;;;;;;;;;;;;;;4989578;28;44708;-82
2022/08/20 04:17:11;;;;;;;;;;;;;;;;;;4997884;28;46500;-81
2022/08/20 04:19:37;;;;;;;;;;;;;;;;;;4991347;28;48061;-81
2022/08/20 04:22:03;;;;;;;;;;;;;;;;;;4990758;28;42965;-82
2022/08/20 04:24:30;;;;;;;;;;;;;;;;;;5010649;28;47391;-82
2022/08/20 04:26:57;;;;;;;;;;;;;;;;;;4994237;28;47170;-82
2022/08/20 04:29:24;;;;;;;;;;;;;;;;;;4984813;28;44849;-82
2022/08/20 04:31:51;;;;;;;;;;;;;;;;;;5009463;28;47514;-82
2022/08/20 04:34:18;;;;;;;;;;;;;;;;;;5027413;28;47345;-82
2022/08/20 04:36:46;;;;;;;;;;;;;;;;;;4995837;28;46436;-81
2022/08/20 04:39:12;;;;;;;;;;;;;;;;;;5010300;28;47046;-82
2022/08/20 04:41:39;;;;;;;;;;;;;;;;;;5009261;28;43755;-81
2022/08/20 04:44:05;;;;;;;;;;;;;;;;;;4989583;28;46295;-81
2022/08/20 04:46:31;;;;;;;;;;;;;;;;;;5006351;28;47013;-81
2022/08/20 04:48:59;;;;;;;;;;;;;;;;;;5008154;28;43611;-81
2022/08/20 04:51:25;;;;;;;;;;;;;;;;;;5009392;28;46448;-82
2022/08/20 04:53:52;;;;;;;;;;;;;;;;;;5011253;28;47200;-81
2022/08/20 04:56:22;;;;;;;;;;;;;;;;;;5005835;28;42638;-82
2022/08/20 04:58:49;;;;;;;;;;;;;;;;;;4947620;28;1763125;-82
2022/08/20 05:01:16;;;;;;;;;;;;;;;;;;4990078;28;45491;-81
2022/08/20 05:03:42;;;;;;;;;;;;;;;;;;5010204;28;47881;-81
2022/08/20 05:06:08;;;;;;;;;;;;;;;;;;4995071;28;46973;-81
2022/08/20 05:08:35;;;;;;;;;;;;;;;;;;4994491;28;44801;-81
2022/08/20 05:11:01;;;;;;;;;;;;;;;;;;5009885;28;46617;-82
2022/08/20 05:13:47;;;;;;;;;;;;;;;;;;4989749;28;19941;-82
2022/08/20 05:16:16;;;;;;;;;;;;;;;;;;4993840;28;44933;-81
2022/08/20 05:18:43;;;;;;;;;;;;;;;;;;5011417;28;46020;-81
2022/08/20 05:21:09;;;;;;;;;;;;;;;;;;4994144;28;42556;-81
2022/08/20 05:23:35;;;;;;;;;;;;;;;;;;5014686;28;46753;-81
2022/08/20 05:26:06;;;;;;;;;;;;;;;;;;5001988;28;48193;-81
2022/08/20 05:28:32;;;;;;;;;;;;;;;;;;4986063;28;44603;-81
2022/08/20 05:31:00;;;;;;;;;;;;;;;;;;4989734;28;45642;-82
2022/08/20 05:33:27;;;;;;;;;;;;;;;;;;5009041;28;48089;-82
2022/08/20 05:35:53;;;;;;;;;;;;;;;;;;4993208;28;44841;-82
2022/08/20 05:38:19;;;;;;;;;;;;;;;;;;4990324;28;45872;-82
2022/08/20 05:40:46;;;;;;;;;;;;;;;;;;5006909;28;43355;-82
2022/08/20 05:43:12;;;;;;;;;;;;;;;;;;4991857;28;44377;-82
2022/08/20 05:45:38;;;;;;;;;;;;;;;;;;5005620;28;46624;-81
2022/08/20 05:48:04;;;;;;;;;;;;;;;;;;5011197;28;44823;-81
2022/08/20 05:50:32;;;;;;;;;;;;;;;;;;5009205;28;47534;-82
2022/08/20 05:53:00;;;;;;;;;;;;;;;;;;4993375;28;47351;-81
2022/08/20 05:55:26;;;;;;;;;;;;;;;;;;5010394;28;43759;-81
2022/08/20 05:57:55;;;;;;;;;;;;;;;;;;5007088;28;44931;-82
2022/08/20 06:00:21;;;;;;;;;;;;;;;;;;5002428;28;46130;-81
2022/08/20 06:05:33;;;;;;;;;;;;;;;;;;5010720;28;47990;-81
2022/08/20 06:07:59;;;;;;;;;;;;;;;;;;5008752;28;42339;-82
2022/08/20 06:10:32;;;;;;;;;;;;;;;;;;5006632;28;45132;-82
2022/08/20 06:12:59;;;;;;;;;;;;;;;;;;5000758;28;48084;-82
2022/08/20 06:15:25;;;;;;;;;;;;;;;;;;5005488;28;45718;-82
2022/08/20 06:17:51;;;;;;;;;;;;;;;;;;5011629;28;47443;-82
2022/08/20 06:20:23;;;;;;;;;;;;;;;;;;4993882;28;46964;-81
2022/08/20 06:22:49;;;;;;;;;;;;;;;;;;5009639;28;44742;-81
2022/08/20 06:25:16;;;;;;;;;;;;;;;;;;5007832;28;47915;-82
2022/08/20 06:27:42;;;;;;;;;;;;;;;;;;5011395;28;43070;-83
2022/08/20 06:30:08;;;;;;;;;;;;;;;;;;4986610;28;46261;-83
2022/08/20 06:32:35;;;;;;;;;;;;;;;;;;5011211;28;48049;-83
2022/08/20 06:35:03;;;;;;;;;;;;;;;;;;5006436;28;43930;-83
2022/08/20 06:37:31;;;;;;;;;;;;;;;;;;5003936;28;46388;-83
2022/08/20 06:39:57;;;;;;;;;;;;;;;;;;4991013;28;48254;-81
2022/08/20 06:42:23;;;;;;;;;;;;;;;;;;5006023;28;42590;-81
2022/08/20 06:44:50;;;;;;;;;;;;;;;;;;5015532;28;46735;-81
2022/08/20 06:47:16;;;;;;;;;;;;;;;;;;5011053;28;43573;-81
2022/08/20 06:49:42;;;;;;;;;;;;;;;;;;5013013;28;46167;-81
2022/08/20 06:52:08;;;;;;;;;;;;;;;;;;5009021;28;46907;-81
2022/08/20 06:54:34;;;;;;;;;;;;;;;;;;4993010;28;43709;-81
2022/08/20 06:57:01;;;;;;;;;;;;;;;;;;4992803;28;46060;-81
2022/08/20 06:59:27;;;;;;;;;;;;;;;;;;5001657;28;47226;-81
2022/08/20 07:01:56;;;;;;;;;;;;;;;;;;4996142;28;44866;-81
2022/08/20 07:04:23;;;;;;;;;;;;;;;;;;4991282;28;47518;-81
2022/08/20 07:06:50;;;;;;;;;;;;;;;;;;5009599;28;48139;-81
2022/08/20 07:09:17;;;;;;;;;;;;;;;;;;4992251;28;46425;-81
2022/08/20 07:11:43;;;;;;;;;;;;;;;;;;4992258;28;46504;-78
2022/08/20 07:14:10;;;;;;;;;;;;;;;;;;4991699;28;44833;-79
2022/08/20 07:16:37;;;;;;;;;;;;;;;;;;5008717;28;47415;-78
2022/08/20 07:19:03;;;;;;;;;;;;;;;;;;5009270;28;45268;-78
2022/08/20 07:21:29;;;;;;;;;;;;;;;;;;5012423;28;45137;-78
2022/08/20 07:23:55;;;;;;;;;;;;;;;;;;5003371;28;47637;-78
2022/08/20 07:26:22;;;;;;;;;;;;;;;;;;4999219;28;47002;-78
2022/08/20 07:28:48;;;;;;;;;;;;;;;;;;5006507;28;43947;-78
2022/08/20 07:34:00;;;;;;;;;;;;;;;;;;5003072;28;41940;-78
2022/08/20 07:36:26;;;;;;;;;;;;;;;;;;4995608;28;47408;-78
2022/08/20 07:38:53;;;;;;;;;;;;;;;;;;5017380;28;45426;-78
2022/08/20 07:41:19;;;;;;;;;;;;;;;;;;4990113;28;43674;-78
2022/08/20 07:43:46;;;;;;;;;;;;;;;;;;4995684;28;46437;-80
2022/08/20 07:46:12;;;;;;;;;;;;;;;;;;4995007;28;48264;-78
2022/08/20 07:48:38;;;;;;;;;;;;;;;;;;4990849;28;43120;-78
2022/08/20 07:51:05;;;;;;;;;;;;;;;;;;5004740;28;46246;-78
2022/08/20 07:53:32;;;;;;;;;;;;;;;;;;5005973;28;41757;-78
2022/08/20 07:56:02;;;;;;;;;;;;;;;;;;4989608;28;46448;-79
2022/08/20 07:58:29;;;;;;;;;;;;;;;;;;5006836;28;47965;-78
2022/08/20 08:00:58;;;;;;;;;;;;;;;;;;5007808;28;43920;-78
2022/08/20 08:03:25;;;;;;;;;;;;;;;;;;5006419;28;44982;-78
2022/08/20 08:06:04;;;;;;;;;;;;;;;;;;5006133;28;48143;-78
2022/08/20 08:08:31;;;;;;;;;;;;;;;;;;5008485;28;43745;-79
2022/08/20 08:10:57;;;;;;;;;;;;;;;;;;5007496;28;43718;-79
2022/08/20 08:13:25;;;;;;;;;;;;;;;;;;5007116;28;43913;-78
2022/08/20 08:15:51;;;;;;;;;;;;;;;;;;5007017;28;47495;-78
2022/08/20 08:18:20;;;;;;;;;;;;;;;;;;5007150;28;46846;-78
2022/08/20 08:20:46;;;;;;;;;;;;;;;;;;5006226;28;44471;-80
2022/08/20 08:23:12;;;;;;;;;;;;;;;;;;5002768;28;47574;-78
2022/08/20 08:25:41;;;;;;;;;;;;;;;;;;4987441;28;45948;-78
2022/08/20 08:28:07;;;;;;;;;;;;;;;;;;5004859;28;44882;-79
2022/08/20 08:30:34;;;;;;;;;;;;;;;;;;5005584;28;47785;-79
2022/08/20 08:35:46;;;;;;;;;;;;;;;;;;4988899;28;46303;-79
2022/08/20 08:38:13;;;;;;;;;;;;;;;;;;5001387;28;47943;-78
2022/08/20 08:40:40;;;;;;;;;;;;;;;;;;5004588;28;43830;-79
2022/08/20 08:43:06;;;;;;;;;;;;;;;;;;5003076;28;47749;-79
2022/08/20 08:45:33;;;;;;;;;;;;;;;;;;5006439;28;47170;-79
2022/08/20 08:47:59;;;;;;;;;;;;;;;;;;4995439;28;43757;-79
2022/08/20 08:50:26;;;;;;;;;;;;;;;;;;5004387;28;48143;-79
2022/08/20 08:53:12;;;;;;;;;;;;;;;;;;5002464;28;19934;-79
2022/08/20 08:55:38;;;;;;;;;;;;;;;;;;5007556;28;40986;-79
2022/08/20 08:58:05;;;;;;;;;;;;;;;;;;5005134;28;46807;-79
2022/08/20 09:00:43;;;;;;;;;;;;;;;;;;5007246;28;42343;-79
2022/08/20 09:03:21;;;;;;;;;;;;;;;;;;4989319;28;47718;-79
2022/08/20 09:05:47;;;;;;;;;;;;;;;;;;5004478;28;46926;-79
2022/08/20 09:08:14;;;;;;;;;;;;;;;;;;4984353;28;42667;-79
2022/08/20 09:10:43;;;;;;;;;;;;;;;;;;4991815;28;46492;-79
2022/08/20 09:13:10;;;;;;;;;;;;;;;;;;5007366;28;46874;-78
2022/08/20 09:15:36;;;;;;;;;;;;;;;;;;5007899;28;44032;-79
2022/08/20 09:18:02;;;;;;;;;;;;;;;;;;5011390;28;47469;-79
2022/08/20 09:20:28;;;;;;;;;;;;;;;;;;5008509;28;44833;-78
2022/08/20 09:22:55;;;;;;;;;;;;;;;;;;5012825;28;47713;-79
2022/08/20 09:25:21;;;;;;;;;;;;;;;;;;5006511;28;46914;-78
2022/08/20 09:27:47;;;;;;;;;;;;;;;;;;5009349;28;41927;-78
2022/08/20 09:30:14;;;;;;;;;;;;;;;;;;5004527;28;46780;-75
2022/08/20 09:32:40;;;;;;;;;;;;;;;;;;5007358;28;48264;-78
2022/08/20 09:35:06;;;;;;;;;;;;;;;;;;5008106;28;45608;-78
2022/08/20 09:37:34;;;;;;;;;;;;;;;;;;5003914;28;47707;-78
2022/08/20 09:40:03;;;;;;;;;;;;;;;;;;5012842;28;35799;-79
2022/08/20 09:42:31;;;;;;;;;;;;;;;;;;5007766;28;48087;-80
2022/08/20 09:45:00;;;;;;;;;;;;;;;;;;5007866;28;48274;-77
2022/08/20 09:47:27;;;;;;;;;;;;;;;;;;5006677;28;45213;-78
2022/08/20 09:49:53;;;;;;;;;;;;;;;;;;5002506;28;43812;-79
2022/08/20 09:52:19;;;;;;;;;;;;;;;;;;5009883;28;46993;-78
2022/08/20 09:54:45;;;;;;;;;;;;;;;;;;5002804;28;44101;-78
2022/08/20 09:57:12;;;;;;;;;;;;;;;;;;5007557;28;48140;-80
2022/08/20 09:59:38;;;;;;;;;;;;;;;;;;5007516;28;47961;-80
2022/08/20 10:02:04;;;;;;;;;;;;;;;;;;5010426;28;47482;-80
2022/08/20 10:04:31;;;;;;;;;;;;;;;;;;5008947;28;48410;-80
2022/08/20 10:06:57;;;;;;;;;;;;;;;;;;5006963;28;44825;-80
2022/08/20 10:09:23;;;;;;;;;;;;;;;;;;5009184;28;46286;-80
2022/08/20 10:11:49;;;;;;;;;;;;;;;;;;5008765;28;46974;-80
2022/08/20 10:14:16;;;;;;;;;;;;;;;;;;4988953;28;43767;-80
2022/08/20 10:16:42;;;;;;;;;;;;;;;;;;5008336;28;46480;-80
2022/08/20 10:19:08;;;;;;;;;;;;;;;;;;5008653;28;46281;-80
2022/08/20 10:21:34;;;;;;;;;;;;;;;;;;5002891;28;44800;-80
2022/08/20 10:24:04;;;;;;;;;;;;;;;;;;4990069;28;48210;-80
2022/08/20 10:26:30;;;;;;;;;;;;;;;;;;5009865;28;43886;-80
2022/08/20 10:28:56;;;;;;;;;;;;;;;;;;5010082;28;47768;-80
2022/08/20 10:31:22;;;;;;;;;;;;;;;;;;5011009;28;47234;-80
2022/08/20 10:33:49;;;;;;;;;;;;;;;;;;5008509;28;44803;-80
2022/08/20 10:36:17;;;;;;;;;;;;;;;;;;5009213;28;46343;-81
2022/08/20 10:38:56;;;;;;;;;;;;;;;;;;5002706;28;48483;-80
2022/08/20 10:41:22;;;;;;;;;;;;;;;;;;5007516;28;41889;-80
2022/08/20 10:43:49;;;;;;;;;;;;;;;;;;5008591;28;46363;-78
2022/08/20 10:46:15;;;;;;;;;;;;;;;;;;5004306;28;44857;-79
2022/08/20 10:48:41;;;;;;;;;;;;;;;;;;5008821;28;46126;-79
2022/08/20 10:51:08;;;;;;;;;;;;;;;;;;5007666;28;46982;-78
2022/08/20 10:53:34;;;;;;;;;;;;;;;;;;5008027;28;42101;-78
2022/08/20 10:56:00;;;;;;;;;;;;;;;;;;5009107;28;46357;-76
2022/08/20 10:58:26;;;;;;;;;;;;;;;;;;4990522;28;44667;-78
2022/08/20 11:01:02;;;;;;;;;;;;;;;;;;5008185;28;42343;-78
2022/08/20 11:03:31;;;;;;;;;;;;;;;;;;4998610;28;46822;-78
2022/08/20 11:05:57;;;;;;;;;;;;;;;;;;5007990;28;45855;-79
2022/08/20 11:08:23;;;;;;;;;;;;;;;;;;5005717;28;47474;-78
2022/08/20 11:10:58;;;;;;;;;;;;;;;;;;4998674;28;47381;-79
2022/08/20 11:13:24;;;;;;;;;;;;;;;;;;5006283;28;42589;-79
2022/08/20 11:15:50;;;;;;;;;;;;;;;;;;5008990;28;47757;-79
2022/08/20 11:18:17;;;;;;;;;;;;;;;;;;5008749;28;45810;-80
2022/08/20 11:20:43;;;;;;;;;;;;;;;;;;5004087;28;43470;-79
2022/08/20 11:23:09;;;;;;;;;;;;;;;;;;5014898;28;46622;-80
2022/08/20 11:25:35;;;;;;;;;;;;;;;;;;5006079;28;48100;-79
2022/08/20 11:28:02;;;;;;;;;;;;;;;;;;5009479;28;44814;-78
2022/08/20 11:30:28;;;;;;;;;;;;;;;;;;5006615;28;44717;-77
2022/08/20 11:32:54;;;;;;;;;;;;;;;;;;5007027;28;44943;-79
2022/08/20 11:35:22;;;;;;;;;;;;;;;;;;5002166;28;47547;-80
2022/08/20 11:38:08;;;;;;;;;;;;;;;;;;5008627;28;47286;-80
2022/08/20 11:40:34;;;;;;;;;;;;;;;;;;5008233;28;43682;-80
2022/08/20 11:43:01;;;;;;;;;;;;;;;;;;4992011;28;45060;-80
2022/08/20 11:45:43;;;;;;;;;;;;;;;;;;5009451;28;47189;-80
2022/08/20 11:48:09;;;;;;;;;;;;;;;;;;5008346;28;43764;-80
2022/08/20 11:50:35;;;;;;;;;;;;;;;;;;5009532;28;46972;-80
2022/08/20 11:53:02;;;;;;;;;;;;;;;;;;5009243;28;44954;-80
2022/08/20 11:55:28;;;;;;;;;;;;;;;;;;5009676;28;46260;-80
2022/08/20 11:57:55;;;;;;;;;;;;;;;;;;5006715;28;48383;-80
2022/08/20 12:00:23;;;;;;;;;;;;;;;;;;5009692;28;41684;-80
2022/08/20 12:02:57;;;;;;;;;;;;;;;;;;5005780;28;47860;-80
2022/08/20 12:05:26;;;;;;;;;;;;;;;;;;5001965;28;47058;-80
2022/08/20 12:07:52;;;;;;;;;;;;;;;;;;5003843;28;44805;-80
2022/08/20 12:10:18;;;;;;;;;;;;;;;;;;5007629;28;46255;-80
2022/08/20 12:12:44;;;;;;;;;;;;;;;;;;4986920;28;41792;-80
2022/08/20 12:15:11;;;;;;;;;;;;;;;;;;5006860;28;45210;-80
2022/08/20 12:17:37;;;;;;;;;;;;;;;;;;5010010;28;46979;-80
2022/08/20 12:20:03;;;;;;;;;;;;;;;;;;5008987;28;42665;-80
2022/08/20 12:22:29;;;;;;;;;;;;;;;;;;5010439;28;46458;-79
2022/08/20 12:24:56;;;;;;;;;;;;;;;;;;5007631;28;45552;-79
2022/08/20 12:27:22;;;;;;;;;;;;;;;;;;5005757;28;45785;-79
2022/08/20 12:29:49;;;;;;;;;;;;;;;;;;5003939;28;46096;-79
2022/08/20 12:32:15;;;;;;;;;;;;;;;;;;5008981;28;47535;-79
2022/08/20 12:34:42;;;;;;;;;;;;;;;;;;5009603;28;47530;-78
2022/08/20 12:37:08;;;;;;;;;;;;;;;;;;5005807;28;48149;-79
2022/08/20 12:39:39;;;;;;;;;;;;;;;;;;5010129;28;43826;-78
2022/08/20 12:42:05;;;;;;;;;;;;;;;;;;5004222;28;46832;-78
2022/08/20 12:44:31;;;;;;;;;;;;;;;;;;5007213;28;46419;-78
2022/08/20 12:46:57;;;;;;;;;;;;;;;;;;5009004;28;43967;-79
2022/08/20 12:49:24;;;;;;;;;;;;;;;;;;5008819;28;50017;-78
2022/08/20 12:51:50;;;;;;;;;;;;;;;;;;4991700;28;47307;-78
2022/08/20 12:54:16;;;;;;;;;;;;;;;;;;5009250;28;43662;-78
2022/08/20 12:56:42;;;;;;;;;;;;;;;;;;5006533;28;48128;-77
2022/08/20 12:59:09;;;;;;;;;;;;;;;;;;5004345;28;44836;-77
2022/08/20 13:01:35;;;;;;;;;;;;;;;;;;5006823;28;45297;-79
2022/08/20 13:04:01;;;;;;;;;;;;;;;;;;5018926;28;47298;-76
2022/08/20 13:06:27;;;;;;;;;;;;;;;;;;5003562;28;42642;-78
2022/08/20 13:08:54;;;;;;;;;;;;;;;;;;5011517;28;44753;-79
2022/08/20 13:11:20;;;;;;;;;;;;;;;;;;5010870;28;47834;-78
2022/08/20 13:13:46;;;;;;;;;;;;;;;;;;5009900;28;43749;-78
2022/08/20 13:16:13;;;;;;;;;;;;;;;;;;5009944;28;46447;-77
2022/08/20 13:18:39;;;;;;;;;;;;;;;;;;5007379;28;42551;-78
2022/08/20 13:21:05;;;;;;;;;;;;;;;;;;5010337;28;44193;-79
2022/08/20 13:23:31;;;;;;;;;;;;;;;;;;5006247;28;47943;-78
2022/08/20 13:25:58;;;;;;;;;;;;;;;;;;5007235;28;44958;-78
2022/08/20 13:28:24;;;;;;;;;;;;;;;;;;5003149;28;46649;-76
2022/08/20 13:30:50;;;;;;;;;;;;;;;;;;4989406;28;47150;-76
2022/08/20 13:33:16;;;;;;;;;;;;;;;;;;5008190;28;43464;-79
2022/08/20 13:35:43;;;;;;;;;;;;;;;;;;5006529;28;47499;-78
2022/08/20 13:38:09;;;;;;;;;;;;;;;;;;5006832;28;47074;-78
2022/08/20 13:40:36;;;;;;;;;;;;;;;;;;5007222;28;45296;-79
2022/08/20 13:43:02;;;;;;;;;;;;;;;;;;5007632;28;45422;-75
2022/08/20 13:45:32;;;;;;;;;;;;;;;;;;5008321;28;44838;-76
2022/08/20 13:47:58;;;;;;;;;;;;;;;;;;5004776;28;47509;-77
2022/08/20 13:50:25;;;;;;;;;;;;;;;;;;5006949;28;46904;-76
2022/08/20 13:52:51;;;;;;;;;;;;;;;;;;4986191;28;43763;-76
2022/08/20 13:55:17;;;;;;;;;;;;;;;;;;5001109;28;47370;-75
2022/08/20 13:57:43;;;;;;;;;;;;;;;;;;5003642;28;48095;-77
2022/08/20 14:00:13;;;;;;;;;;;;;;;;;;5005682;28;46436;-79
2022/08/20 14:02:39;;;;;;;;;;;;;;;;;;5006889;28;48144;-80
2022/08/20 14:05:08;;;;;;;;;;;;;;;;;;5006843;28;44694;-79
2022/08/20 14:07:34;;;;;;;;;;;;;;;;;;4990425;28;46544;-79
2022/08/20 14:10:00;;;;;;;;;;;;;;;;;;5007887;28;46999;-78
2022/08/20 14:12:26;;;;;;;;;;;;;;;;;;5003778;28;45125;-78
2022/08/20 14:14:53;;;;;;;;;;;;;;;;;;5007899;28;46354;-78
2022/08/20 14:17:19;;;;;;;;;;;;;;;;;;5004594;28;45456;-79
2022/08/20 14:19:45;;;;;;;;;;;;;;;;;;5007004;28;43606;-79
2022/08/20 14:22:12;;;;;;;;;;;;;;;;;;5002498;28;46111;-78
2022/08/20 14:24:38;;;;;;;;;;;;;;;;;;5005007;28;43504;-79
2022/08/20 14:27:04;;;;;;;;;;;;;;;;;;5009118;28;46784;-78
2022/08/20 14:29:30;;;;;;;;;;;;;;;;;;5006090;28;45738;-77
2022/08/20 14:31:57;;;;;;;;;;;;;;;;;;5001726;28;43948;-79
2022/08/20 14:34:23;;;;;;;;;;;;;;;;;;5006487;28;47038;-77
2022/08/20 14:36:49;;;;;;;;;;;;;;;;;;5002822;28;47179;-76
2022/08/20 14:39:18;;;;;;;;;;;;;;;;;;4989122;28;43912;-75
2022/08/20 14:41:45;;;;;;;;;;;;;;;;;;5001065;28;46153;-75
2022/08/20 14:44:11;;;;;;;;;;;;;;;;;;5004902;28;43900;-77
2022/08/20 14:46:38;;;;;;;;;;;;;;;;;;4989219;28;46312;-77
2022/08/20 14:49:04;;;;;;;;;;;;;;;;;;5003240;28;46998;-76
2022/08/20 14:51:30;;;;;;;;;;;;;;;;;;5003782;28;44680;-77
2022/08/20 14:53:57;;;;;;;;;;;;;;;;;;5006512;28;47981;-76
2022/08/20 14:56:23;;;;;;;;;;;;;;;;;;4990997;28;48053;-76
2022/08/20 14:58:49;;;;;;;;;;;;;;;;;;5006041;28;43729;-76
2022/08/20 15:01:16;;;;;;;;;;;;;;;;;;5004116;28;47703;-75
2022/08/20 15:03:42;;;;;;;;;;;;;;;;;;5005646;28;43968;-77
2022/08/20 15:06:08;;;;;;;;;;;;;;;;;;5007537;28;46447;-75
2022/08/20 15:08:46;;;;;;;;;;;;;;;;;;4986622;28;47367;-78
2022/08/20 15:11:12;;;;;;;;;;;;;;;;;;5003616;28;42548;-76
2022/08/20 15:13:38;;;;;;;;;;;;;;;;;;5003940;28;47581;-76
2022/08/20 15:16:05;;;;;;;;;;;;;;;;;;5005171;28;45882;-76
2022/08/20 15:18:31;;;;;;;;;;;;;;;;;;5006134;28;46124;-76
2022/08/20 15:20:57;;;;;;;;;;;;;;;;;;5007391;28;45332;-77
2022/08/20 15:23:23;;;;;;;;;;;;;;;;;;5006138;28;46896;-75
2022/08/20 15:25:50;;;;;;;;;;;;;;;;;;5006601;28;44846;-76
2022/08/20 15:28:16;;;;;;;;;;;;;;;;;;5004376;28;46185;-75
2022/08/20 15:30:42;;;;;;;;;;;;;;;;;;5007594;28;44674;-76
2022/08/20 15:33:08;;;;;;;;;;;;;;;;;;5006166;28;47389;-76
2022/08/20 15:35:35;;;;;;;;;;;;;;;;;;4985432;28;48097;-76
2022/08/20 15:38:01;;;;;;;;;;;;;;;;;;5004791;28;43813;-76
2022/08/20 15:40:27;;;;;;;;;;;;;;;;;;5005615;28;45329;-76
2022/08/20 15:42:54;;;;;;;;;;;;;;;;;;5004725;28;47953;-77
2022/08/20 15:45:20;;;;;;;;;;;;;;;;;;5006093;28;43621;-77
2022/08/20 15:47:47;;;;;;;;;;;;;;;;;;5005719;28;47678;-77
2022/08/20 15:50:13;;;;;;;;;;;;;;;;;;5005602;28;43554;-76
2022/08/20 15:52:39;;;;;;;;;;;;;;;;;;5007031;28;46600;-76
2022/08/20 15:55:07;;;;;;;;;;;;;;;;;;5005153;28;47358;-76
2022/08/20 15:57:33;;;;;;;;;;;;;;;;;;5004507;28;43710;-75
2022/08/20 15:59:59;;;;;;;;;;;;;;;;;;5005533;28;46436;-76
2022/08/20 16:02:26;;;;;;;;;;;;;;;;;;5003037;28;47030;-75
2022/08/20 16:04:52;;;;;;;;;;;;;;;;;;5005472;28;43772;-75
2022/08/20 16:07:18;;;;;;;;;;;;;;;;;;4999960;28;47652;-74
2022/08/20 16:09:44;;;;;;;;;;;;;;;;;;5004437;28;43754;-79
2022/08/20 16:12:11;;;;;;;;;;;;;;;;;;5005492;28;46204;-79
2022/08/20 16:14:37;;;;;;;;;;;;;;;;;;5005597;28;48407;-76
2022/08/20 16:17:03;;;;;;;;;;;;;;;;;;5004744;28;44950;-78
2022/08/20 16:19:29;;;;;;;;;;;;;;;;;;5009286;28;47012;-76
2022/08/20 16:21:56;;;;;;;;;;;;;;;;;;5007236;28;47017;-77
2022/08/20 16:24:22;;;;;;;;;;;;;;;;;;5007414;28;45080;-76
2022/08/20 16:26:48;;;;;;;;;;;;;;;;;;5009000;28;47425;-76
2022/08/20 16:29:14;;;;;;;;;;;;;;;;;;5009065;28;47013;-74
2022/08/20 16:31:41;;;;;;;;;;;;;;;;;;5006896;28;46455;-74
2022/08/20 16:34:07;;;;;;;;;;;;;;;;;;5006998;28;49309;-75
2022/08/20 16:36:53;;;;;;;;;;;;;;;;;;5009558;28;20375;-74
2022/08/20 16:39:28;;;;;;;;;;;;;;;;;;5007233;28;46397;-76
2022/08/20 16:41:55;;;;;;;;;;;;;;;;;;5008320;28;46881;-74
2022/08/20 16:44:21;;;;;;;;;;;;;;;;;;5008689;28;42981;-75
2022/08/20 16:46:47;;;;;;;;;;;;;;;;;;5007510;28;47374;-76
2022/08/20 16:49:13;;;;;;;;;;;;;;;;;;5010530;28;46451;-76
2022/08/20 16:51:40;;;;;;;;;;;;;;;;;;5006057;28;42576;-78
2022/08/20 16:54:06;;;;;;;;;;;;;;;;;;4992757;28;48136;-78
2022/08/20 16:56:33;;;;;;;;;;;;;;;;;;5009879;28;45844;-78